Airfield :
LOGIN :

Register | Disclaimer

   EN    FR    IT 

 










Legend :    VFR   Marginal VFR   IFR   Intensive IFR   Very Intensive IFR
Visi :
Ceiling :
>= 8 km
>= 3000ft
5 to 8 km
1000 to 3000 ft
1500m to 5 km
500 to 1000 ft
800 to 1500m
200 to 500 ft
< 800m
< 200 ft
Symbols :   Thunderstorms  Fog  Heavy snow  Heavy precipitations  Wind > 20 kt
SIGMETs :     Misc.  Thunderstorms  Icing  Turbulence  Mountain Waves  Volcanic Ashes






- Airport Elevation : 39 ft
- IATA code : ANR


EBAW - Anvers / Antwerpen Deurne

CURRENT METAR :
  • 270650Z 01005KT 320V050 CAVOK 16/10 Q1034 NOSIG

EXPIRED METARs :
  • 270620Z 36005KT 340V040 CAVOK 16/10 Q1034 NOSIG
  • 270550Z 35005KT CAVOK 15/10 Q1034 NOSIG
  • 270520Z 35005KT 320V020 CAVOK 14/10 Q1034 NOSIG
  • 270450Z AUTO 36004KT CAVOK 14/09 Q1034
  • 270420Z AUTO 03004KT 350V060 CAVOK 13/09 Q1034
  • 270350Z AUTO 02004KT CAVOK 13/08 Q1034

TAF TAF EBAW
Valid from the 27 at 06:00 until the 27 at 15:00 UTC


270501Z 2706/2715 35004KT 9999 FEW025



MET'MAP, your aeronautical weather chart ! - Copyright ORBIFLY December 2007 - Disclaimer

ORBIFLY MET'MAP TEAM :

Programming & Development : Alexandra Zaïnal
Concept & original design : Baudouin d'Aumeries
Assistance for programming : Marc-Olivier Méhu
Technical & hardware support : Manuel Goepfert

Contact : metmap@orbifly.com




SOURCES & CREDITS :

   NOAA